createdAt,value
2023-01-15T00:02:19.763Z,8.10
2023-01-15T00:06:02.961Z,8.20
2023-01-15T00:09:42.780Z,8.36
2023-01-15T00:13:24.712Z,8.59
2023-01-15T00:17:02.639Z,8.70
2023-01-15T00:20:53.526Z,8.78
2023-01-15T00:24:35.268Z,8.81
2023-01-15T00:28:38.987Z,8.90
2023-01-15T00:32:14.681Z,8.95
2023-01-15T00:35:50.555Z,8.98
2023-01-15T00:39:28.866Z,8.98
2023-01-15T00:43:32.314Z,8.98
2023-01-15T00:47:31.974Z,8.99
2023-01-15T00:51:12.428Z,9.02
2023-01-15T00:55:16.237Z,9.03
2023-01-15T00:58:35.599Z,9.08
2023-01-15T01:02:11.501Z,9.06
2023-01-15T01:05:51.866Z,9.03
2023-01-15T01:09:32.497Z,9.01
2023-01-15T01:13:12.639Z,8.98
2023-01-15T01:17:02.565Z,8.98
2023-01-15T01:20:36.551Z,8.99
2023-01-15T01:24:33.642Z,8.95
2023-01-15T01:28:51.858Z,8.98
2023-01-15T01:33:10.606Z,8.99
2023-01-15T01:37:02.060Z,9.02
2023-01-15T01:41:05.441Z,9.02
2023-01-15T01:45:06.848Z,8.98
2023-01-15T01:49:09.592Z,8.94
2023-01-15T01:53:39.481Z,8.97
2023-01-15T02:00:34.745Z,8.88
2023-01-15T02:03:50.908Z,8.90
2023-01-15T02:07:48.630Z,8.90
2023-01-15T02:11:19.389Z,8.89
2023-01-15T02:14:59.482Z,8.90
2023-01-15T02:19:00.857Z,8.92
2023-01-15T02:22:44.534Z,8.92
2023-01-15T02:27:24.653Z,8.92
2023-01-15T02:34:48.858Z,8.95
2023-01-15T02:38:03.352Z,8.96
2023-01-15T02:41:39.351Z,8.92
2023-01-15T02:45:13.434Z,8.96
2023-01-15T02:48:48.860Z,8.96
2023-01-15T02:52:47.682Z,8.95
2023-01-15T02:56:17.399Z,8.96
2023-01-15T03:00:15.587Z,8.96
2023-01-15T03:03:48.815Z,8.95
2023-01-15T03:08:29.226Z,8.96
2023-01-15T03:13:25.719Z,8.97
2023-01-15T03:17:55.438Z,8.94
2023-01-15T03:21:45.960Z,8.94
2023-01-15T03:25:47.344Z,8.97
2023-01-15T03:29:28.999Z,8.98
2023-01-15T03:33:10.072Z,9.01
2023-01-15T03:36:28.018Z,9.05
2023-01-15T03:40:30.032Z,9.07
2023-01-15T03:44:10.512Z,9.10
2023-01-15T03:48:44.518Z,9.14
2023-01-15T03:52:21.153Z,9.10
2023-01-15T03:56:25.077Z,9.08
2023-01-15T04:00:08.680Z,9.07
2023-01-15T04:04:11.187Z,9.08
2023-01-15T04:07:52.111Z,9.10
2023-01-15T04:11:29.668Z,9.14
2023-01-15T04:16:04.674Z,9.17
2023-01-15T04:20:35.040Z,9.16
2023-01-15T04:24:04.156Z,9.11
2023-01-15T04:28:26.522Z,9.06
2023-01-15T04:32:56.855Z,9.02
2023-01-15T04:36:56.029Z,8.95
2023-01-15T04:40:54.909Z,8.92
2023-01-15T04:44:31.751Z,8.86
2023-01-15T04:49:00.779Z,8.83
2023-01-15T04:53:39.339Z,8.86
2023-01-15T04:57:26.443Z,8.92
2023-01-15T05:01:29.533Z,8.96
2023-01-15T05:05:09.564Z,8.99
2023-01-15T05:09:10.545Z,9.03
2023-01-15T05:13:12.633Z,9.09
2023-01-15T05:17:19.901Z,9.22
2023-01-15T05:20:59.636Z,9.32
2023-01-15T05:25:26.948Z,9.36
2023-01-15T05:28:56.963Z,9.24
2023-01-15T05:32:34.298Z,9.17
2023-01-15T05:36:14.775Z,9.18
2023-01-15T05:43:50.612Z,9.21
2023-01-15T05:52:09.661Z,9.15
2023-01-15T05:56:29.120Z,9.11
2023-01-15T06:03:19.490Z,9.10
2023-01-15T06:05:52.470Z,9.09
2023-01-15T06:08:23.747Z,9.10
2023-01-15T06:10:52.508Z,9.14
2023-01-15T06:13:21.151Z,9.15
2023-01-15T06:15:49.829Z,9.16
2023-01-15T06:18:18.458Z,9.17
2023-01-15T06:20:47.126Z,9.17
2023-01-15T06:23:18.476Z,9.15
2023-01-15T06:25:47.207Z,9.19
2023-01-15T06:28:15.957Z,9.19
2023-01-15T06:30:44.723Z,9.23
2023-01-15T06:33:13.285Z,9.24
2023-01-15T06:35:41.982Z,9.25
2023-01-15T06:38:10.608Z,9.27
2023-01-15T06:40:39.526Z,9.26
2023-01-15T06:43:29.824Z,9.28
2023-01-15T06:46:18.063Z,9.30
2023-01-15T06:48:47.775Z,9.30
2023-01-15T06:51:19.904Z,9.32
2023-01-15T06:53:48.701Z,9.38
2023-01-15T06:56:17.440Z,9.38
2023-01-15T06:58:46.242Z,9.39
2023-01-15T07:01:16.559Z,9.43
2023-01-15T07:03:45.449Z,9.46
2023-01-15T07:06:14.456Z,9.45
2023-01-15T07:08:43.311Z,9.43
2023-01-15T07:11:12.748Z,9.43
2023-01-15T07:13:41.638Z,9.44
2023-01-15T07:16:27.279Z,9.44
2023-01-15T07:18:56.590Z,9.41
2023-01-15T07:21:25.797Z,9.47
2023-01-15T07:23:55.722Z,9.48
2023-01-15T07:26:24.436Z,9.53
2023-01-15T07:28:53.171Z,9.57
2023-01-15T07:31:22.439Z,9.61
2023-01-15T07:33:51.145Z,9.64
2023-01-15T07:36:19.873Z,9.69
2023-01-15T07:38:48.555Z,9.74
2023-01-15T07:41:35.917Z,9.75
2023-01-15T07:44:23.151Z,9.76
2023-01-15T07:47:10.200Z,9.77
2023-01-15T07:49:49.005Z,9.78
2023-01-15T07:52:23.150Z,9.80
2023-01-15T07:54:51.912Z,9.81
2023-01-15T07:57:23.082Z,9.81
2023-01-15T07:59:52.125Z,9.84
2023-01-15T08:02:21.079Z,9.84
2023-01-15T08:04:50.024Z,9.85
2023-01-15T08:07:18.865Z,9.86
2023-01-15T08:09:47.626Z,9.85
2023-01-15T08:12:34.863Z,9.85
2023-01-15T08:15:16.860Z,9.86
2023-01-15T08:17:49.241Z,9.88
2023-01-15T08:20:28.106Z,9.86
2023-01-15T08:22:57.283Z,9.86
2023-01-15T08:25:26.690Z,9.88
2023-01-15T08:27:55.668Z,9.90
2023-01-15T08:30:26.186Z,9.89
2023-01-15T08:33:01.222Z,9.88
2023-01-15T08:35:30.364Z,9.87
2023-01-15T08:37:59.145Z,9.89
2023-01-15T08:40:28.443Z,9.92
2023-01-15T08:42:57.101Z,9.94
2023-01-15T08:45:25.899Z,9.93
2023-01-15T08:47:58.603Z,9.92
2023-01-15T08:50:27.535Z,9.94
2023-01-15T08:52:56.249Z,9.95
2023-01-15T08:55:24.991Z,9.98
2023-01-15T08:57:53.719Z,10.04
2023-01-15T09:00:22.558Z,9.95
2023-01-15T09:02:52.242Z,9.68
2023-01-15T09:05:21.084Z,9.52
2023-01-15T09:07:49.819Z,9.48
2023-01-15T09:10:19.265Z,9.48
2023-01-15T09:12:48.453Z,9.69
2023-01-15T09:15:18.300Z,9.74
2023-01-15T09:17:47.198Z,9.66
2023-01-15T09:20:16.061Z,9.56
2023-01-15T09:22:44.855Z,9.48
2023-01-15T09:25:13.520Z,9.45
2023-01-15T09:27:42.594Z,9.46
2023-01-15T09:30:19.474Z,9.48
2023-01-15T09:32:49.057Z,9.48
2023-01-15T09:35:17.918Z,9.40
2023-01-15T09:37:53.452Z,9.35
2023-01-15T09:40:49.330Z,9.34
2023-01-15T09:43:49.968Z,9.34
2023-01-15T09:46:39.474Z,9.29
2023-01-15T09:49:34.688Z,9.20
2023-01-15T09:52:43.779Z,9.15
2023-01-15T09:55:25.764Z,9.13
2023-01-15T09:58:00.230Z,9.17
2023-01-15T10:00:40.305Z,9.20
2023-01-15T10:03:41.309Z,9.25
2023-01-15T10:06:25.908Z,9.27
2023-01-15T10:09:14.087Z,9.27
2023-01-15T10:12:09.440Z,9.27
2023-01-15T10:14:50.987Z,9.17
2023-01-15T10:17:29.882Z,9.06
2023-01-15T10:19:58.878Z,9.09
2023-01-15T10:23:37.815Z,9.05
2023-01-15T10:26:26.950Z,9.01
2023-01-15T10:29:22.025Z,9.01
2023-01-15T10:32:01.960Z,9.02
2023-01-15T10:35:08.468Z,9.02
2023-01-15T10:37:49.032Z,9.04
2023-01-15T10:40:37.830Z,9.06
2023-01-15T10:43:49.888Z,9.10
2023-01-15T10:46:25.308Z,9.22
2023-01-15T10:49:02.926Z,9.25
2023-01-15T10:51:57.191Z,9.28
2023-01-15T10:54:37.300Z,9.29
2023-01-15T10:57:52.557Z,9.30
2023-01-15T11:00:28.524Z,9.35
2023-01-15T11:03:21.419Z,9.37
2023-01-15T11:05:50.201Z,9.42
2023-01-15T11:12:18.690Z,9.39
2023-01-15T11:15:06.315Z,9.31
2023-01-15T11:18:06.528Z,9.27
2023-01-15T11:20:45.370Z,9.22
2023-01-15T11:23:18.535Z,9.22
2023-01-15T11:25:59.797Z,9.26
2023-01-15T11:28:41.782Z,9.25
2023-01-15T11:31:13.046Z,9.22
2023-01-15T11:33:55.911Z,9.17
2023-01-15T11:36:29.052Z,9.11
2023-01-15T11:38:58.696Z,9.09
2023-01-15T11:41:47.562Z,9.17
2023-01-15T11:44:40.190Z,9.32
2023-01-15T11:47:37.032Z,9.42
2023-01-15T11:50:37.887Z,9.46
2023-01-15T11:53:18.416Z,9.48
2023-01-15T11:56:06.976Z,9.47
2023-01-15T11:58:46.744Z,9.40
2023-01-15T12:01:37.002Z,9.10
2023-01-15T12:04:24.934Z,8.68
2023-01-15T12:06:54.581Z,8.28
2023-01-15T12:10:05.154Z,8.03
2023-01-15T12:12:45.983Z,7.75
2023-01-15T12:16:19.354Z,7.55
2023-01-15T12:19:07.695Z,7.32
2023-01-15T12:22:08.617Z,7.19
2023-01-15T12:24:37.205Z,7.03
2023-01-15T12:27:40.998Z,6.90
2023-01-15T12:30:28.178Z,6.77
2023-01-15T12:33:08.888Z,6.64
2023-01-15T12:35:57.207Z,6.52
2023-01-15T12:38:47.155Z,6.39
2023-01-15T12:41:25.865Z,6.27
2023-01-15T12:44:17.229Z,6.17
2023-01-15T12:46:46.997Z,6.09
2023-01-15T12:49:46.773Z,6.02
2023-01-15T12:52:24.690Z,5.99
2023-01-15T12:55:21.464Z,5.96
2023-01-15T12:58:01.790Z,5.93
2023-01-15T13:00:43.153Z,5.90
2023-01-15T13:03:28.805Z,5.89
2023-01-15T13:06:02.688Z,5.89
2023-01-15T13:08:51.067Z,5.93
2023-01-15T13:11:19.786Z,5.94
2023-01-15T13:13:58.433Z,5.96
2023-01-15T13:16:36.135Z,5.98
2023-01-15T13:19:28.807Z,5.98
2023-01-15T13:22:04.503Z,5.95
2023-01-15T13:25:02.544Z,5.94
2023-01-15T13:28:17.922Z,5.91
2023-01-15T13:30:56.743Z,5.91
2023-01-15T13:33:40.049Z,5.90
2023-01-15T13:36:45.556Z,5.90
2023-01-15T13:39:25.765Z,5.91
2023-01-15T13:42:14.242Z,5.92
2023-01-15T13:44:52.538Z,5.97
2023-01-15T13:47:30.769Z,5.99
2023-01-15T13:50:06.072Z,6.01
2023-01-15T13:52:38.543Z,6.01
2023-01-15T13:55:16.283Z,5.96
2023-01-15T13:57:45.341Z,5.92
2023-01-15T14:00:39.140Z,5.92
2023-01-15T14:03:38.665Z,5.89
2023-01-15T14:06:11.191Z,5.92
2023-01-15T14:08:44.991Z,5.90
2023-01-15T14:11:36.932Z,5.89
2023-01-15T14:14:08.710Z,5.89
2023-01-15T14:16:43.847Z,5.86
2023-01-15T14:19:59.703Z,5.86
2023-01-15T14:23:01.847Z,5.85
2023-01-15T14:26:06.596Z,5.85
2023-01-15T14:29:22.735Z,5.86
2023-01-15T14:32:32.129Z,5.82
2023-01-15T14:35:03.354Z,5.78
2023-01-15T14:37:44.795Z,5.75
2023-01-15T14:40:32.693Z,5.76
2023-01-15T14:43:22.332Z,5.76
2023-01-15T14:45:53.548Z,5.80
2023-01-15T14:48:31.171Z,5.85
2023-01-15T14:51:14.774Z,5.87
2023-01-15T14:53:47.572Z,5.87
2023-01-15T14:56:23.619Z,5.86
2023-01-15T14:59:41.585Z,5.87
2023-01-15T15:02:25.802Z,5.86
2023-01-15T15:04:57.472Z,5.84
2023-01-15T15:07:31.352Z,5.84
2023-01-15T15:10:26.094Z,5.82
2023-01-15T15:13:06.372Z,5.78
2023-01-15T15:15:53.800Z,5.75
2023-01-15T15:18:36.573Z,5.70
2023-01-15T15:21:39.913Z,5.67
2023-01-15T15:24:27.140Z,5.68
2023-01-15T15:26:56.744Z,5.67
2023-01-15T15:29:25.512Z,5.65
2023-01-15T15:32:00.452Z,5.65
2023-01-15T15:34:41.537Z,5.66
2023-01-15T15:37:25.558Z,5.68
2023-01-15T15:40:16.851Z,5.67
2023-01-15T15:43:23.833Z,5.61
2023-01-15T15:46:14.144Z,5.53
2023-01-15T15:48:53.681Z,5.46
2023-01-15T15:51:35.839Z,5.41
2023-01-15T15:54:21.354Z,5.37
2023-01-15T15:57:15.097Z,5.32
2023-01-15T15:59:53.104Z,5.28
2023-01-15T16:02:38.299Z,5.28
2023-01-15T16:05:26.102Z,5.27
2023-01-15T16:07:57.735Z,5.29
2023-01-15T16:10:32.995Z,5.29
2023-01-15T16:13:10.711Z,5.31
2023-01-15T16:15:42.299Z,5.33
2023-01-15T16:18:26.665Z,5.34
2023-01-15T16:20:57.224Z,5.31
2023-01-15T16:23:32.510Z,5.30
2023-01-15T16:26:21.932Z,5.28
2023-01-15T16:29:19.984Z,5.20
2023-01-15T16:31:49.470Z,5.11
2023-01-15T16:34:23.187Z,5.01
2023-01-15T16:36:53.089Z,4.98
2023-01-15T16:39:39.383Z,4.96
2023-01-15T16:42:31.251Z,4.95
2023-01-15T16:45:07.170Z,4.98
2023-01-15T16:47:37.821Z,4.98
2023-01-15T16:50:25.458Z,4.97
2023-01-15T16:52:58.240Z,4.98
2023-01-15T16:55:43.728Z,5.00
2023-01-15T16:58:18.031Z,4.99
2023-01-15T17:00:56.233Z,5.00
2023-01-15T17:03:29.122Z,5.02
2023-01-15T17:06:12.619Z,5.02
2023-01-15T17:08:49.618Z,4.99
2023-01-15T17:11:23.651Z,4.99
2023-01-15T17:14:08.621Z,4.92
2023-01-15T17:16:37.471Z,4.83
2023-01-15T17:19:08.249Z,4.83
2023-01-15T17:21:39.276Z,4.81
2023-01-15T17:24:09.613Z,4.78
2023-01-15T17:26:38.493Z,4.76
2023-01-15T17:29:07.292Z,4.77
2023-01-15T17:31:36.676Z,4.71
2023-01-15T17:34:06.212Z,4.68
2023-01-15T17:36:35.430Z,4.70
2023-01-15T17:39:04.393Z,4.65
2023-01-15T17:41:33.241Z,4.58
2023-01-15T17:44:02.081Z,4.57
2023-01-15T17:46:30.892Z,4.55
2023-01-15T17:48:59.704Z,4.47
2023-01-15T17:51:30.769Z,4.45
2023-01-15T17:53:59.543Z,4.46
2023-01-15T17:56:46.918Z,4.49
2023-01-15T17:59:34.053Z,4.46
2023-01-15T18:02:23.734Z,4.41
2023-01-15T18:05:13.787Z,4.38
2023-01-15T18:07:44.034Z,4.39
2023-01-15T18:10:19.469Z,4.39
2023-01-15T18:12:48.710Z,4.31
2023-01-15T18:15:17.734Z,4.25
2023-01-15T18:17:47.582Z,4.15
2023-01-15T18:20:16.628Z,4.16
2023-01-15T18:22:45.575Z,4.24
2023-01-15T18:25:14.429Z,4.30
2023-01-15T18:27:43.752Z,4.39
2023-01-15T18:30:17.136Z,4.36
2023-01-15T18:32:46.308Z,4.39
2023-01-15T18:35:15.243Z,4.34
2023-01-15T18:37:44.117Z,4.35
2023-01-15T18:40:13.232Z,4.32
2023-01-15T18:43:00.809Z,4.35
2023-01-15T18:45:48.271Z,4.32
2023-01-15T18:48:17.936Z,4.29
2023-01-15T18:50:49.321Z,4.35
2023-01-15T18:53:18.648Z,4.40
2023-01-15T18:55:48.149Z,4.33
2023-01-15T18:58:18.415Z,4.30
2023-01-15T19:00:53.955Z,4.50
2023-01-15T19:03:24.043Z,4.78
2023-01-15T19:05:54.929Z,4.84
2023-01-15T19:08:25.056Z,4.90
2023-01-15T19:10:53.926Z,4.96
2023-01-15T19:13:22.626Z,5.01
2023-01-15T19:16:10.026Z,4.96
2023-01-15T19:18:52.972Z,4.96
2023-01-15T19:21:22.568Z,4.94
2023-01-15T19:23:52.589Z,4.90
2023-01-15T19:26:21.232Z,4.93
2023-01-15T19:28:49.912Z,4.94
2023-01-15T19:31:37.370Z,4.95
2023-01-15T19:34:32.076Z,4.92
2023-01-15T19:36:59.188Z,4.90
2023-01-15T19:39:29.494Z,4.88
2023-01-15T19:42:18.337Z,4.89
2023-01-15T19:45:05.433Z,4.91
2023-01-15T19:48:00.217Z,4.94
2023-01-15T19:50:38.601Z,4.96
2023-01-15T19:53:10.055Z,4.94
2023-01-15T19:55:43.897Z,4.90
2023-01-15T19:58:15.345Z,4.86
2023-01-15T20:00:50.054Z,4.84
2023-01-15T20:03:19.087Z,4.81
2023-01-15T20:05:48.161Z,4.79
2023-01-15T20:08:18.872Z,4.77
2023-01-15T20:10:51.055Z,4.75
2023-01-15T20:13:41.282Z,4.70
2023-01-15T20:16:18.106Z,4.64
2023-01-15T20:18:50.145Z,4.62
2023-01-15T20:21:19.487Z,4.61
2023-01-15T20:23:48.345Z,4.56
2023-01-15T20:26:18.540Z,4.62
2023-01-15T20:28:48.060Z,4.68
2023-01-15T20:31:20.330Z,4.70
2023-01-15T20:33:49.163Z,4.70
2023-01-15T20:36:17.906Z,4.66
2023-01-15T20:38:46.761Z,4.59
2023-01-15T20:41:33.810Z,4.56
2023-01-15T20:44:20.982Z,4.54
2023-01-15T20:46:49.753Z,4.50
2023-01-15T20:49:29.201Z,4.47
2023-01-15T20:51:59.271Z,4.42
2023-01-15T20:54:28.086Z,4.35
2023-01-15T20:56:56.986Z,4.35
2023-01-15T20:59:25.778Z,4.38
2023-01-15T21:01:55.189Z,4.33
2023-01-15T21:04:24.189Z,4.25
2023-01-15T21:06:52.984Z,4.16
2023-01-15T21:09:21.902Z,4.09
2023-01-15T21:11:50.686Z,4.01
2023-01-15T21:14:19.355Z,3.94
2023-01-15T21:16:51.578Z,3.91
2023-01-15T21:19:21.339Z,3.90
2023-01-15T21:21:50.148Z,3.88
2023-01-15T21:24:19.321Z,3.83
2023-01-15T21:26:49.082Z,3.77
2023-01-15T21:29:17.776Z,3.72
2023-01-15T21:31:47.058Z,3.64
2023-01-15T21:34:16.135Z,3.62
2023-01-15T21:36:44.979Z,3.54
2023-01-15T21:39:16.281Z,3.49
2023-01-15T21:42:03.977Z,3.38
2023-01-15T21:44:35.104Z,3.37
2023-01-15T21:47:09.524Z,3.38
2023-01-15T21:49:38.667Z,3.34
2023-01-15T21:52:17.958Z,3.25
2023-01-15T21:54:47.590Z,3.18
2023-01-15T21:57:16.424Z,3.16
2023-01-15T21:59:45.800Z,3.12
2023-01-15T22:02:20.524Z,3.12
2023-01-15T22:04:49.612Z,3.07
2023-01-15T22:07:19.728Z,3.08
2023-01-15T22:09:48.494Z,3.13
2023-01-15T22:12:17.554Z,3.17
2023-01-15T22:14:46.358Z,3.18
2023-01-15T22:17:14.994Z,3.16
2023-01-15T22:19:43.614Z,3.13
2023-01-15T22:22:12.465Z,3.08
2023-01-15T22:24:41.684Z,3.03
2023-01-15T22:27:16.897Z,2.97
2023-01-15T22:29:45.816Z,2.95
2023-01-15T22:32:16.604Z,2.93
2023-01-15T22:34:47.710Z,2.92
2023-01-15T22:37:16.458Z,2.92
2023-01-15T22:39:45.200Z,2.94
2023-01-15T22:42:27.985Z,2.93
2023-01-15T22:44:59.556Z,2.89
2023-01-15T22:47:30.180Z,2.89
2023-01-15T22:49:58.925Z,2.88
2023-01-15T22:52:27.783Z,2.87
2023-01-15T22:54:56.699Z,2.89
2023-01-15T22:57:25.469Z,2.89
2023-01-15T23:00:32.918Z,2.86
2023-01-15T23:04:11.770Z,2.82
2023-01-15T23:07:48.743Z,2.83
2023-01-15T23:12:10.301Z,2.86
2023-01-15T23:15:45.494Z,2.89
2023-01-15T23:23:55.447Z,2.87
2023-01-15T23:27:54.363Z,2.88
2023-01-15T23:32:23.580Z,2.90
2023-01-15T23:39:09.642Z,2.95
2023-01-15T23:42:25.489Z,2.94
2023-01-15T23:46:03.808Z,2.93
2023-01-15T23:49:31.285Z,2.89
2023-01-15T23:53:41.364Z,2.85
2023-01-15T23:57:19.757Z,2.84
